Time;durP1;ratioP1;P1;durP2;ratioP2;P2;SDS_P1;SDS_P2;PMS_P1;PMS_P2;Temp;Humidity;BMP_temperature;BMP_pressure;BME280_temperature;BME280_humidity;BME280_pressure;Samples;Min_cycle;Max_cycle;Signal;HPM_P1;HPM_P2
2023/08/27 00:01:17;;;;;;;6.30;3.57;;;;;;;;;;5054986;28;20161;-69
2023/08/27 00:03:42;;;;;;;4.13;3.70;;;;;;;;;;5071971;28;20186;-69
2023/08/27 00:06:09;;;;;;;4.60;3.80;;;;;;;;;;5069563;28;20189;-69
2023/08/27 00:08:34;;;;;;;4.20;3.40;;;;;;;;;;5054412;28;20187;-69
2023/08/27 00:10:59;;;;;;;4.33;3.93;;;;;;;;;;5072287;28;20210;-69
2023/08/27 00:13:25;;;;;;;4.90;3.50;;;;;;;;;;5069499;28;20168;-68
2023/08/27 00:15:50;;;;;;;4.77;3.40;;;;;;;;;;5068443;28;20189;-68
2023/08/27 00:18:15;;;;;;;4.27;3.37;;;;;;;;;;5072772;28;20268;-68
2023/08/27 00:20:41;;;;;;;5.37;3.83;;;;;;;;;;5072515;28;20263;-69
2023/08/27 00:23:08;;;;;;;3.53;3.23;;;;;;;;;;5071850;28;20189;-69
2023/08/27 00:25:33;;;;;;;3.50;3.20;;;;;;;;;;5071069;28;20195;-69
2023/08/27 00:27:58;;;;;;;5.07;3.70;;;;;;;;;;5068909;28;20190;-69
2023/08/27 00:30:23;;;;;;;6.63;4.60;;;;;;;;;;5053125;28;20227;-69
2023/08/27 00:32:49;;;;;;;4.47;3.30;;;;;;;;;;5054588;28;20206;-69
2023/08/27 00:35:14;;;;;;;5.03;4.23;;;;;;;;;;5070256;28;20262;-69
2023/08/27 00:37:39;;;;;;;6.13;3.73;;;;;;;;;;5054437;28;20175;-69
2023/08/27 00:40:05;;;;;;;11.17;3.30;;;;;;;;;;5053520;28;20180;-69
2023/08/27 00:42:31;;;;;;;3.60;3.30;;;;;;;;;;5070584;28;20177;-69
2023/08/27 00:44:56;;;;;;;4.47;3.73;;;;;;;;;;5054113;28;20200;-69
2023/08/27 00:47:21;;;;;;;5.20;3.30;;;;;;;;;;5070991;28;20182;-69
2023/08/27 00:49:47;;;;;;;3.93;3.63;;;;;;;;;;5053807;28;20241;-69
2023/08/27 00:52:12;;;;;;;6.40;3.57;;;;;;;;;;5053292;28;20175;-69
2023/08/27 00:54:40;;;;;;;4.20;3.80;;;;;;;;;;5053168;28;20189;-69
2023/08/27 00:57:05;;;;;;;3.90;2.90;;;;;;;;;;5067934;28;20176;-69
2023/08/27 00:59:31;;;;;;;3.47;3.17;;;;;;;;;;5053414;28;20195;-69
2023/08/27 01:01:56;;;;;;;4.03;3.07;;;;;;;;;;5052918;28;20179;-69
2023/08/27 01:04:22;;;;;;;4.03;3.20;;;;;;;;;;5071599;28;20216;-69
2023/08/27 01:06:47;;;;;;;3.70;3.30;;;;;;;;;;5052810;28;20183;-68
2023/08/27 01:09:32;;;;;;;6.07;4.07;;;;;;;;;;5053457;28;20247;-69
2023/08/27 01:12:21;;;;;;;5.83;4.03;;;;;;;;;;5067702;28;20173;-69
2023/08/27 01:14:47;;;;;;;4.30;3.73;;;;;;;;;;5067592;28;20192;-69
2023/08/27 01:17:14;;;;;;;4.97;4.03;;;;;;;;;;5050317;28;20176;-69
2023/08/27 01:19:39;;;;;;;7.73;4.23;;;;;;;;;;5052739;28;20203;-69
2023/08/27 01:22:05;;;;;;;4.30;3.90;;;;;;;;;;5070709;28;20183;-69
2023/08/27 01:24:30;;;;;;;5.47;3.67;;;;;;;;;;5073692;28;20317;-69
2023/08/27 01:27:07;;;;;;;4.10;3.67;;;;;;;;;;5053197;28;20181;-69
2023/08/27 01:29:53;;;;;;;7.13;5.67;;;;;;;;;;5069501;28;20211;-69
2023/08/27 01:32:37;;;;;;;5.13;4.40;;;;;;;;;;5069173;28;20170;-69
2023/08/27 01:35:06;;;;;;;6.00;3.77;;;;;;;;;;5051013;28;20180;-68
2023/08/27 01:37:31;;;;;;;4.87;3.40;;;;;;;;;;5067614;28;20172;-69
2023/08/27 01:40:01;;;;;;;6.67;4.00;;;;;;;;;;5068145;28;20182;-69
2023/08/27 01:42:26;;;;;;;3.97;3.47;;;;;;;;;;5052344;28;20203;-69
2023/08/27 01:44:52;;;;;;;7.10;3.30;;;;;;;;;;5072927;28;20176;-69
2023/08/27 01:47:17;;;;;;;5.17;3.20;;;;;;;;;;5068960;28;20207;-68
2023/08/27 01:49:42;;;;;;;5.03;3.00;;;;;;;;;;5067390;28;20204;-69
2023/08/27 01:52:07;;;;;;;4.63;3.63;;;;;;;;;;5052308;28;20164;-69
2023/08/27 01:54:33;;;;;;;9.33;3.87;;;;;;;;;;5050840;28;20195;-69
2023/08/27 01:56:58;;;;;;;4.43;3.20;;;;;;;;;;5070427;28;20260;-68
2023/08/27 01:59:23;;;;;;;6.13;3.33;;;;;;;;;;5054654;28;20223;-69
2023/08/27 02:01:49;;;;;;;5.17;3.13;;;;;;;;;;5052745;28;20260;-69
2023/08/27 02:04:14;;;;;;;4.30;3.33;;;;;;;;;;5070549;28;20254;-69
2023/08/27 02:06:39;;;;;;;4.63;3.40;;;;;;;;;;5052490;28;20188;-69
2023/08/27 02:09:06;;;;;;;4.63;3.03;;;;;;;;;;5056518;28;20226;-69
2023/08/27 02:11:31;;;;;;;3.57;3.27;;;;;;;;;;5055490;28;20188;-69
2023/08/27 02:13:56;;;;;;;4.90;3.43;;;;;;;;;;5057752;28;20190;-69
2023/08/27 02:16:22;;;;;;;5.60;2.90;;;;;;;;;;5069751;28;20180;-68
2023/08/27 02:18:47;;;;;;;3.93;3.23;;;;;;;;;;5069813;28;20229;-68
2023/08/27 02:21:12;;;;;;;3.70;2.90;;;;;;;;;;5051720;28;20187;-69
2023/08/27 02:23:37;;;;;;;3.80;2.93;;;;;;;;;;5051246;28;20242;-69
2023/08/27 02:26:03;;;;;;;4.10;3.23;;;;;;;;;;5067767;28;20190;-69
2023/08/27 02:28:28;;;;;;;5.03;3.40;;;;;;;;;;5073662;28;20175;-68
2023/08/27 02:30:54;;;;;;;5.60;3.53;;;;;;;;;;5072387;28;20205;-69
2023/08/27 02:33:19;;;;;;;6.50;3.97;;;;;;;;;;5072670;28;20191;-69
2023/08/27 02:35:44;;;;;;;5.20;3.60;;;;;;;;;;5059661;28;20174;-68
2023/08/27 02:38:09;;;;;;;6.07;3.23;;;;;;;;;;5073293;28;20176;-69
2023/08/27 02:40:35;;;;;;;5.60;3.37;;;;;;;;;;5073728;28;20198;-69
2023/08/27 02:43:01;;;;;;;5.77;3.70;;;;;;;;;;5073992;28;20179;-68
2023/08/27 02:45:27;;;;;;;5.17;3.77;;;;;;;;;;5056248;28;20265;-69
2023/08/27 02:47:52;;;;;;;5.67;3.87;;;;;;;;;;5058844;28;20366;-69
2023/08/27 02:50:17;;;;;;;4.00;3.30;;;;;;;;;;5055464;28;20211;-68
2023/08/27 02:52:42;;;;;;;5.00;3.67;;;;;;;;;;5055087;28;20187;-69
2023/08/27 02:55:08;;;;;;;5.13;3.10;;;;;;;;;;5057360;28;20243;-69
2023/08/27 02:57:33;;;;;;;6.80;3.87;;;;;;;;;;5076318;28;20211;-69
2023/08/27 02:59:58;;;;;;;4.27;3.40;;;;;;;;;;5075336;28;20206;-69
2023/08/27 03:02:24;;;;;;;5.90;4.27;;;;;;;;;;5076401;28;20198;-69
2023/08/27 03:04:50;;;;;;;4.60;3.63;;;;;;;;;;5073593;28;20312;-68
2023/08/27 03:07:15;;;;;;;4.80;4.23;;;;;;;;;;5071692;28;20207;-68
2023/08/27 03:09:40;;;;;;;6.40;3.50;;;;;;;;;;5075934;28;20242;-68
2023/08/27 03:12:05;;;;;;;8.13;3.70;;;;;;;;;;5075211;28;20177;-68
2023/08/27 03:14:31;;;;;;;5.40;3.67;;;;;;;;;;5077121;28;20177;-68
2023/08/27 03:16:56;;;;;;;5.77;3.43;;;;;;;;;;5071836;28;20195;-68
2023/08/27 03:19:22;;;;;;;8.70;4.50;;;;;;;;;;5071812;28;20207;-68
2023/08/27 03:21:47;;;;;;;4.30;3.57;;;;;;;;;;5071409;28;20188;-68
2023/08/27 03:24:12;;;;;;;3.70;2.90;;;;;;;;;;5075695;28;20234;-68
2023/08/27 03:26:38;;;;;;;5.97;3.87;;;;;;;;;;5072955;28;20241;-68
2023/08/27 03:29:03;;;;;;;4.20;3.20;;;;;;;;;;5053672;28;20216;-68
2023/08/27 03:31:29;;;;;;;4.20;3.50;;;;;;;;;;5054915;28;20177;-68
2023/08/27 03:33:54;;;;;;;6.03;3.17;;;;;;;;;;5071020;28;20189;-68
2023/08/27 03:36:19;;;;;;;5.90;4.13;;;;;;;;;;5053771;28;20261;-68
2023/08/27 03:38:44;;;;;;;5.50;3.50;;;;;;;;;;5073945;28;20210;-68
2023/08/27 03:41:09;;;;;;;4.93;3.23;;;;;;;;;;5054663;28;20189;-69
2023/08/27 03:43:35;;;;;;;4.57;3.80;;;;;;;;;;5070260;28;20209;-68
2023/08/27 03:46:00;;;;;;;4.70;3.93;;;;;;;;;;5073011;28;20180;-68
2023/08/27 03:48:25;;;;;;;5.03;3.73;;;;;;;;;;5067569;28;20190;-68
2023/08/27 03:50:50;;;;;;;5.90;3.90;;;;;;;;;;5071983;28;20193;-68
2023/08/27 03:53:15;;;;;;;6.37;3.97;;;;;;;;;;5071682;28;20177;-68
2023/08/27 03:55:41;;;;;;;5.57;4.30;;;;;;;;;;5053880;28;20179;-69
2023/08/27 03:58:10;;;;;;;6.47;4.03;;;;;;;;;;5074177;28;20173;-68
2023/08/27 04:00:35;;;;;;;6.23;4.20;;;;;;;;;;5050710;28;20334;-68
2023/08/27 04:03:01;;;;;;;5.23;4.30;;;;;;;;;;5072811;28;20191;-68
2023/08/27 04:05:26;;;;;;;6.70;3.80;;;;;;;;;;5072586;28;20187;-68
2023/08/27 04:07:51;;;;;;;7.07;3.70;;;;;;;;;;5053635;28;20206;-68
2023/08/27 04:10:16;;;;;;;5.17;3.77;;;;;;;;;;5051985;28;20228;-68
2023/08/27 04:12:42;;;;;;;4.43;3.80;;;;;;;;;;5062745;28;20233;-68
2023/08/27 04:15:07;;;;;;;5.47;4.20;;;;;;;;;;5058894;28;20324;-68
2023/08/27 04:17:32;;;;;;;11.80;4.40;;;;;;;;;;5070391;28;20183;-68
2023/08/27 04:19:58;;;;;;;4.83;4.27;;;;;;;;;;5054572;28;20192;-68
2023/08/27 04:22:23;;;;;;;5.17;3.90;;;;;;;;;;5053794;28;20184;-68
2023/08/27 04:24:50;;;;;;;5.73;4.50;;;;;;;;;;5055948;28;20190;-68
2023/08/27 04:27:15;;;;;;;5.80;3.87;;;;;;;;;;5071884;28;20178;-68
2023/08/27 04:29:40;;;;;;;5.13;3.73;;;;;;;;;;5070820;28;20216;-68
2023/08/27 04:32:06;;;;;;;5.90;3.83;;;;;;;;;;5071618;28;20167;-68
2023/08/27 04:34:31;;;;;;;5.57;3.70;;;;;;;;;;5072415;28;20241;-68
2023/08/27 04:36:56;;;;;;;5.80;3.83;;;;;;;;;;5053574;28;20171;-68
2023/08/27 04:39:22;;;;;;;5.50;3.40;;;;;;;;;;5070570;28;20200;-68
2023/08/27 04:41:48;;;;;;;4.33;3.87;;;;;;;;;;5071236;28;20196;-68
2023/08/27 04:44:13;;;;;;;6.03;4.33;;;;;;;;;;5053915;28;20177;-68
2023/08/27 04:46:38;;;;;;;3.97;3.53;;;;;;;;;;5071013;28;20272;-68
2023/08/27 04:49:03;;;;;;;6.40;5.80;;;;;;;;;;5053465;28;20184;-68
2023/08/27 04:51:29;;;;;;;6.40;4.10;;;;;;;;;;5071477;28;20173;-68
2023/08/27 04:53:54;;;;;;;5.63;5.07;;;;;;;;;;5071662;28;20183;-68
2023/08/27 04:56:19;;;;;;;4.17;3.83;;;;;;;;;;5068717;28;20177;-68
2023/08/27 04:58:45;;;;;;;4.27;3.90;;;;;;;;;;5055422;28;20176;-68
2023/08/27 05:01:11;;;;;;;4.87;4.30;;;;;;;;;;5070356;28;20207;-68
2023/08/27 05:03:36;;;;;;;5.80;4.03;;;;;;;;;;5070652;28;20205;-68
2023/08/27 05:06:02;;;;;;;5.60;4.50;;;;;;;;;;5069444;28;20172;-68
2023/08/27 05:08:27;;;;;;;6.97;4.00;;;;;;;;;;5071714;28;20203;-68
2023/08/27 05:10:52;;;;;;;4.23;3.53;;;;;;;;;;5070254;28;20377;-68
2023/08/27 05:13:18;;;;;;;4.97;3.90;;;;;;;;;;5053488;28;20171;-68
2023/08/27 05:15:43;;;;;;;5.83;3.80;;;;;;;;;;5070758;28;20212;-68
2023/08/27 05:18:09;;;;;;;5.20;3.83;;;;;;;;;;5067969;28;20204;-68
2023/08/27 05:20:35;;;;;;;4.60;3.80;;;;;;;;;;5069642;28;20232;-68
2023/08/27 05:23:00;;;;;;;4.47;4.07;;;;;;;;;;5070936;28;20203;-68
2023/08/27 05:25:26;;;;;;;4.80;3.93;;;;;;;;;;5050763;28;20308;-68
2023/08/27 05:27:51;;;;;;;5.97;3.63;;;;;;;;;;5068715;28;20187;-68
2023/08/27 05:30:16;;;;;;;3.83;3.43;;;;;;;;;;5052098;28;20211;-68
2023/08/27 05:32:41;;;;;;;5.20;3.80;;;;;;;;;;5050663;28;20215;-68
2023/08/27 05:35:07;;;;;;;4.20;3.40;;;;;;;;;;5068190;28;20187;-68
2023/08/27 05:37:32;;;;;;;4.00;3.70;;;;;;;;;;5069027;28;20178;-68
2023/08/27 05:39:58;;;;;;;4.40;3.87;;;;;;;;;;5069986;28;20196;-68
2023/08/27 05:42:23;;;;;;;4.93;4.13;;;;;;;;;;5053090;28;20182;-68
2023/08/27 05:44:48;;;;;;;4.30;3.90;;;;;;;;;;5052830;28;20186;-68
2023/08/27 05:47:15;;;;;;;3.73;3.23;;;;;;;;;;5069273;28;20275;-68
2023/08/27 05:49:42;;;;;;;4.07;3.67;;;;;;;;;;5068841;28;20199;-68
2023/08/27 05:52:07;;;;;;;5.30;3.37;;;;;;;;;;5068356;28;20331;-68
2023/08/27 05:54:32;;;;;;;4.53;3.70;;;;;;;;;;5071111;28;20281;-68
2023/08/27 05:56:57;;;;;;;3.60;3.30;;;;;;;;;;5049803;28;20172;-68
2023/08/27 05:59:23;;;;;;;3.70;3.40;;;;;;;;;;5072354;28;20184;-68
2023/08/27 06:01:48;;;;;;;4.17;3.20;;;;;;;;;;5068371;28;20203;-68
2023/08/27 06:04:13;;;;;;;3.30;2.87;;;;;;;;;;5070637;28;20179;-68
2023/08/27 06:06:40;;;;;;;3.53;3.07;;;;;;;;;;5068355;28;20207;-68
2023/08/27 06:09:05;;;;;;;3.90;3.60;;;;;;;;;;5073694;28;20226;-68
2023/08/27 06:11:30;;;;;;;3.10;2.90;;;;;;;;;;5071561;28;20183;-68
2023/08/27 06:13:56;;;;;;;3.57;2.60;;;;;;;;;;5056348;28;20199;-68
2023/08/27 06:16:21;;;;;;;4.27;3.20;;;;;;;;;;5069964;28;20270;-68
2023/08/27 06:18:46;;;;;;;3.67;3.37;;;;;;;;;;5068272;28;20191;-68
2023/08/27 06:21:11;;;;;;;7.03;3.80;;;;;;;;;;5069826;28;20175;-68
2023/08/27 06:23:37;;;;;;;3.70;3.40;;;;;;;;;;5052890;28;20215;-68
2023/08/27 06:26:03;;;;;;;3.33;3.03;;;;;;;;;;5071806;28;20224;-68
2023/08/27 06:28:29;;;;;;;3.97;3.57;;;;;;;;;;5068493;28;20180;-68
2023/08/27 06:30:54;;;;;;;3.87;3.47;;;;;;;;;;5069411;28;20201;-68
2023/08/27 06:33:19;;;;;;;4.57;3.50;;;;;;;;;;5051831;28;20191;-68
2023/08/27 06:35:44;;;;;;;3.50;3.20;;;;;;;;;;5069248;28;20202;-68
2023/08/27 06:38:10;;;;;;;3.73;3.03;;;;;;;;;;5071449;28;20227;-68
2023/08/27 06:40:35;;;;;;;3.73;3.10;;;;;;;;;;5069689;28;20176;-68
2023/08/27 06:43:00;;;;;;;3.43;3.13;;;;;;;;;;5072032;28;20179;-68
2023/08/27 06:45:27;;;;;;;4.13;3.33;;;;;;;;;;5069699;28;20177;-68
2023/08/27 06:47:52;;;;;;;5.50;3.30;;;;;;;;;;5051789;28;20191;-68
2023/08/27 06:50:18;;;;;;;3.30;3.00;;;;;;;;;;5070159;28;20221;-68
2023/08/27 06:52:43;;;;;;;5.63;3.47;;;;;;;;;;5069621;28;20203;-68
2023/08/27 06:55:10;;;;;;;4.50;3.30;;;;;;;;;;5070757;28;20175;-68
2023/08/27 06:57:35;;;;;;;3.90;3.40;;;;;;;;;;5069275;28;20178;-68
2023/08/27 07:00:01;;;;;;;5.03;3.10;;;;;;;;;;5071034;28;20167;-68
2023/08/27 07:02:27;;;;;;;3.70;3.27;;;;;;;;;;5052308;28;20184;-68
2023/08/27 07:04:52;;;;;;;5.03;4.13;;;;;;;;;;5051959;28;20180;-68
2023/08/27 07:07:18;;;;;;;4.77;3.83;;;;;;;;;;5052396;28;20214;-68
2023/08/27 07:09:43;;;;;;;4.73;3.50;;;;;;;;;;5070670;28;20258;-68
2023/08/27 07:12:08;;;;;;;7.93;4.00;;;;;;;;;;5069609;28;20171;-68
2023/08/27 07:14:33;;;;;;;3.67;3.37;;;;;;;;;;5071916;28;20175;-68
2023/08/27 07:16:59;;;;;;;7.17;3.53;;;;;;;;;;5052655;28;20176;-68
2023/08/27 07:19:24;;;;;;;4.47;3.53;;;;;;;;;;5051102;28;20179;-68
2023/08/27 07:21:50;;;;;;;5.23;3.97;;;;;;;;;;5072852;28;20178;-68
2023/08/27 07:24:15;;;;;;;4.40;3.87;;;;;;;;;;5072451;28;20186;-68
2023/08/27 07:26:40;;;;;;;4.17;3.40;;;;;;;;;;5072609;28;20174;-68
2023/08/27 07:29:06;;;;;;;5.03;3.37;;;;;;;;;;5071934;28;20182;-68
2023/08/27 07:31:31;;;;;;;7.20;4.30;;;;;;;;;;5072963;28;20332;-68
2023/08/27 07:33:56;;;;;;;5.63;4.23;;;;;;;;;;5052124;28;20203;-69
2023/08/27 07:36:21;;;;;;;6.50;4.20;;;;;;;;;;5071028;28;20188;-68
2023/08/27 07:38:47;;;;;;;7.83;4.00;;;;;;;;;;5053886;28;20180;-68
2023/08/27 07:41:13;;;;;;;3.50;2.87;;;;;;;;;;5056362;28;20266;-68
2023/08/27 07:43:39;;;;;;;2.93;2.70;;;;;;;;;;5053600;28;20192;-68
2023/08/27 07:46:04;;;;;;;4.43;3.23;;;;;;;;;;5073000;28;20188;-68
2023/08/27 07:48:31;;;;;;;3.50;3.20;;;;;;;;;;5053588;28;20188;-68
2023/08/27 07:50:57;;;;;;;3.00;2.70;;;;;;;;;;5053122;28;20200;-68
2023/08/27 07:53:22;;;;;;;3.63;2.80;;;;;;;;;;5054308;28;20207;-68
2023/08/27 07:55:48;;;;;;;4.57;3.37;;;;;;;;;;5079328;28;20204;-68
2023/08/27 07:58:13;;;;;;;3.90;3.20;;;;;;;;;;5054742;28;20176;-68
2023/08/27 08:00:38;;;;;;;3.07;2.87;;;;;;;;;;5071801;28;20215;-68
2023/08/27 08:03:04;;;;;;;3.73;2.90;;;;;;;;;;5073077;28;20177;-68
2023/08/27 08:05:29;;;;;;;8.30;3.53;;;;;;;;;;5053708;28;20208;-68
2023/08/27 08:07:55;;;;;;;4.63;3.37;;;;;;;;;;5070765;28;20299;-68
2023/08/27 08:10:23;;;;;;;4.00;3.30;;;;;;;;;;5053882;28;20232;-68
2023/08/27 08:12:49;;;;;;;4.43;2.87;;;;;;;;;;5072794;28;20172;-68
2023/08/27 08:15:15;;;;;;;4.17;3.13;;;;;;;;;;5054017;28;20244;-68
2023/08/27 08:17:40;;;;;;;4.00;3.00;;;;;;;;;;5068947;28;20188;-68
2023/08/27 08:20:05;;;;;;;2.80;2.60;;;;;;;;;;5070707;28;20174;-68
2023/08/27 08:22:30;;;;;;;4.20;3.20;;;;;;;;;;5072480;28;20172;-68
2023/08/27 08:24:56;;;;;;;3.87;2.43;;;;;;;;;;5074468;28;20197;-68
2023/08/27 08:27:21;;;;;;;4.73;3.07;;;;;;;;;;5052394;28;20185;-68
2023/08/27 08:29:47;;;;;;;6.40;3.27;;;;;;;;;;5053722;28;20219;-68
2023/08/27 08:32:12;;;;;;;5.10;2.93;;;;;;;;;;5053965;28;20174;-68
2023/08/27 08:34:39;;;;;;;3.50;2.80;;;;;;;;;;5054178;28;20182;-68
2023/08/27 08:37:04;;;;;;;3.70;2.80;;;;;;;;;;5052496;28;20205;-68
2023/08/27 08:39:29;;;;;;;3.93;2.67;;;;;;;;;;5053503;28;20223;-68
2023/08/27 08:42:10;;;;;;;5.23;3.00;;;;;;;;;;5052153;28;20198;-68
2023/08/27 08:44:42;;;;;;;3.70;2.60;;;;;;;;;;5052252;28;20188;-68
2023/08/27 08:47:09;;;;;;;3.10;2.80;;;;;;;;;;5053877;28;20178;-68
2023/08/27 08:49:35;;;;;;;5.77;3.20;;;;;;;;;;5070768;28;20215;-68
2023/08/27 08:52:02;;;;;;;4.57;2.90;;;;;;;;;;5053933;28;20184;-68
2023/08/27 08:54:28;;;;;;;4.53;3.40;;;;;;;;;;5071696;28;20192;-68
2023/08/27 08:56:54;;;;;;;3.70;3.20;;;;;;;;;;5053100;28;20183;-68
2023/08/27 08:59:21;;;;;;;5.53;2.90;;;;;;;;;;5067672;28;20189;-68
2023/08/27 09:01:46;;;;;;;3.67;3.17;;;;;;;;;;5069076;28;20205;-68
2023/08/27 09:04:13;;;;;;;3.50;3.20;;;;;;;;;;5071405;28;20209;-68
2023/08/27 09:06:38;;;;;;;4.20;3.27;;;;;;;;;;5069777;28;20191;-69
2023/08/27 09:09:04;;;;;;;3.03;2.83;;;;;;;;;;5051915;28;20250;-68
2023/08/27 09:11:29;;;;;;;3.30;2.97;;;;;;;;;;5070359;28;20225;-68
2023/08/27 09:13:56;;;;;;;3.43;3.07;;;;;;;;;;5053301;28;20192;-68
2023/08/27 09:16:22;;;;;;;5.47;3.73;;;;;;;;;;5068900;28;20178;-68
2023/08/27 09:18:47;;;;;;;4.47;3.40;;;;;;;;;;5057629;28;20173;-68
2023/08/27 09:21:12;;;;;;;6.47;3.90;;;;;;;;;;5069671;28;20202;-68
2023/08/27 09:23:37;;;;;;;4.07;3.00;;;;;;;;;;5068377;28;20200;-68
2023/08/27 09:26:06;;;;;;;4.57;3.30;;;;;;;;;;5068728;28;20264;-68
2023/08/27 09:28:33;;;;;;;4.47;3.30;;;;;;;;;;5055087;28;20193;-68
2023/08/27 09:30:59;;;;;;;4.40;3.07;;;;;;;;;;5069696;28;20295;-68
2023/08/27 09:33:41;;;;;;;3.30;3.00;;;;;;;;;;5050917;28;20264;-68
2023/08/27 09:36:07;;;;;;;4.07;3.40;;;;;;;;;;5048036;28;20185;-68
2023/08/27 09:38:34;;;;;;;3.83;3.43;;;;;;;;;;5068550;28;20184;-68
2023/08/27 09:41:30;;;;;;;5.90;3.60;;;;;;;;;;5067852;28;20186;-68
2023/08/27 09:43:55;;;;;;;4.83;3.37;;;;;;;;;;5038927;28;20204;-68
2023/08/27 09:46:21;;;;;;;3.87;3.07;;;;;;;;;;5069114;28;20187;-73
2023/08/27 09:48:57;;;;;;;3.23;2.93;;;;;;;;;;5051853;28;20194;-73
2023/08/27 09:51:23;;;;;;;5.33;3.27;;;;;;;;;;5047916;28;20209;-73
2023/08/27 09:53:48;;;;;;;3.90;3.43;;;;;;;;;;5049909;28;20188;-73
2023/08/27 09:56:15;;;;;;;3.57;3.17;;;;;;;;;;5046721;28;20188;-72
2023/08/27 09:58:40;;;;;;;6.83;3.67;;;;;;;;;;5052211;28;20232;-73
2023/08/27 10:01:07;;;;;;;4.97;3.70;;;;;;;;;;5067694;28;20184;-73
2023/08/27 10:03:32;;;;;;;3.97;3.03;;;;;;;;;;5068270;28;20192;-73
2023/08/27 10:06:00;;;;;;;3.07;2.77;;;;;;;;;;5066162;28;20183;-73
2023/08/27 10:08:25;;;;;;;3.00;2.80;;;;;;;;;;5068140;28;20262;-73
2023/08/27 10:10:50;;;;;;;4.40;2.70;;;;;;;;;;5069920;28;20227;-73
2023/08/27 10:13:17;;;;;;;5.00;2.50;;;;;;;;;;5068257;28;20171;-73
2023/08/27 10:15:43;;;;;;;3.43;2.83;;;;;;;;;;5067666;28;20189;-74
2023/08/27 10:18:12;;;;;;;6.33;3.67;;;;;;;;;;5042079;28;20252;-73
2023/08/27 10:20:39;;;;;;;5.30;2.80;;;;;;;;;;5049021;28;20193;-74
2023/08/27 10:23:05;;;;;;;5.73;3.03;;;;;;;;;;5048414;28;20178;-74
2023/08/27 10:25:32;;;;;;;3.00;2.70;;;;;;;;;;5051031;28;20213;-74
2023/08/27 10:27:57;;;;;;;4.07;3.00;;;;;;;;;;5050704;28;20181;-74
2023/08/27 10:30:23;;;;;;;3.57;2.90;;;;;;;;;;5069344;28;20194;-74
2023/08/27 10:32:48;;;;;;;2.50;2.30;;;;;;;;;;5049353;28;20191;-74
2023/08/27 10:35:14;;;;;;;4.87;2.83;;;;;;;;;;5069435;28;20203;-74
2023/08/27 10:37:43;;;;;;;4.67;2.53;;;;;;;;;;5048982;28;20233;-74
2023/08/27 10:40:10;;;;;;;3.50;2.73;;;;;;;;;;5053410;28;20183;-74
2023/08/27 10:42:38;;;;;;;3.03;2.60;;;;;;;;;;5064908;28;20191;-74
2023/08/27 10:45:11;;;;;;;3.83;3.30;;;;;;;;;;5066627;28;20204;-74
2023/08/27 10:47:36;;;;;;;6.03;5.53;;;;;;;;;;5053321;28;20203;-74
2023/08/27 10:50:01;;;;;;;4.93;3.10;;;;;;;;;;5054362;28;20200;-74
2023/08/27 10:52:27;;;;;;;4.77;2.40;;;;;;;;;;5071605;28;20174;-74
2023/08/27 10:54:59;;;;;;;4.90;2.90;;;;;;;;;;5073686;28;20180;-74
2023/08/27 10:57:24;;;;;;;2.77;2.57;;;;;;;;;;5071594;28;20205;-74
2023/08/27 10:59:52;;;;;;;3.10;2.80;;;;;;;;;;5073973;28;20263;-74
2023/08/27 11:02:17;;;;;;;3.30;3.00;;;;;;;;;;5055906;28;20177;-74
2023/08/27 11:04:46;;;;;;;3.57;3.27;;;;;;;;;;5074085;28;20273;-74
2023/08/27 11:07:12;;;;;;;3.23;2.90;;;;;;;;;;5055056;28;20198;-74
2023/08/27 11:09:45;;;;;;;4.70;3.10;;;;;;;;;;5056822;28;20293;-74
2023/08/27 11:12:19;;;;;;;5.43;2.97;;;;;;;;;;5070631;28;20176;-74
2023/08/27 11:14:45;;;;;;;3.20;2.90;;;;;;;;;;5064176;28;20332;-74
2023/08/27 11:17:10;;;;;;;3.93;2.73;;;;;;;;;;5054804;28;20212;-74
2023/08/27 11:19:37;;;;;;;4.07;3.13;;;;;;;;;;5055990;28;20247;-74
2023/08/27 11:22:12;;;;;;;4.57;2.87;;;;;;;;;;5073244;28;20188;-74
2023/08/27 11:24:39;;;;;;;5.73;2.70;;;;;;;;;;5073773;28;20183;-74
2023/08/27 11:27:05;;;;;;;4.90;2.60;;;;;;;;;;5073568;28;20262;-74
2023/08/27 11:29:31;;;;;;;3.40;2.83;;;;;;;;;;5069490;28;20291;-75
2023/08/27 11:31:58;;;;;;;4.43;2.80;;;;;;;;;;5071140;28;20209;-74
2023/08/27 11:34:24;;;;;;;3.60;3.30;;;;;;;;;;5070902;28;20177;-74
2023/08/27 11:36:54;;;;;;;3.53;3.23;;;;;;;;;;5053582;28;20174;-74
2023/08/27 11:39:19;;;;;;;3.03;2.70;;;;;;;;;;5071914;28;20173;-74
2023/08/27 11:41:44;;;;;;;4.43;2.60;;;;;;;;;;5072644;28;20183;-74
2023/08/27 11:44:10;;;;;;;4.60;2.77;;;;;;;;;;5071394;28;20177;-74
2023/08/27 11:46:35;;;;;;;4.53;2.73;;;;;;;;;;5069140;28;20239;-74
2023/08/27 11:49:01;;;;;;;2.90;2.70;;;;;;;;;;5054809;28;20170;-74
2023/08/27 11:51:26;;;;;;;3.57;2.70;;;;;;;;;;5071567;28;20237;-74
2023/08/27 11:53:52;;;;;;;3.97;2.90;;;;;;;;;;5068922;28;20179;-74
2023/08/27 11:56:17;;;;;;;5.97;3.20;;;;;;;;;;5071730;28;20188;-74
2023/08/27 11:58:44;;;;;;;2.80;2.50;;;;;;;;;;5070703;28;20174;-74
2023/08/27 12:01:12;;;;;;;3.73;2.80;;;;;;;;;;5056435;28;20227;-74
2023/08/27 12:03:38;;;;;;;3.57;2.60;;;;;;;;;;5054488;28;20189;-74
2023/08/27 12:06:03;;;;;;;3.60;2.73;;;;;;;;;;5071179;28;20176;-74
2023/08/27 12:08:33;;;;;;;6.53;3.77;;;;;;;;;;5070896;28;20213;-74
2023/08/27 12:10:59;;;;;;;5.47;3.13;;;;;;;;;;5072206;28;20232;-74
2023/08/27 12:13:24;;;;;;;2.83;2.63;;;;;;;;;;5050292;28;20274;-74
2023/08/27 12:15:49;;;;;;;2.60;2.40;;;;;;;;;;5071404;28;20188;-74
2023/08/27 12:18:14;;;;;;;3.50;3.00;;;;;;;;;;5071088;28;20167;-75
2023/08/27 12:20:39;;;;;;;3.93;2.70;;;;;;;;;;5052788;28;20191;-74
2023/08/27 12:23:12;;;;;;;3.70;2.53;;;;;;;;;;5072089;28;20187;-74
2023/08/27 12:25:44;;;;;;;4.43;2.23;;;;;;;;;;5052696;28;20187;-74
2023/08/27 12:28:09;;;;;;;3.70;2.67;;;;;;;;;;5053060;28;20182;-74
2023/08/27 12:30:36;;;;;;;2.97;2.70;;;;;;;;;;5053036;28;20212;-74
2023/08/27 12:33:01;;;;;;;4.10;2.87;;;;;;;;;;5053063;28;20221;-75
2023/08/27 12:35:30;;;;;;;3.07;2.30;;;;;;;;;;5052241;28;20182;-75
2023/08/27 12:37:55;;;;;;;2.97;2.20;;;;;;;;;;5069316;28;20184;-74
2023/08/27 12:40:20;;;;;;;3.43;2.70;;;;;;;;;;5069277;28;20176;-75
2023/08/27 12:42:48;;;;;;;2.93;2.30;;;;;;;;;;5069175;28;20193;-75
2023/08/27 12:45:16;;;;;;;4.40;2.40;;;;;;;;;;5070957;28;20181;-75
2023/08/27 12:47:42;;;;;;;4.40;2.73;;;;;;;;;;5053827;28;20282;-75
2023/08/27 12:50:08;;;;;;;2.87;2.20;;;;;;;;;;5069160;28;20281;-74
2023/08/27 12:52:33;;;;;;;5.97;3.40;;;;;;;;;;5071250;28;20205;-74
2023/08/27 12:54:59;;;;;;;6.30;3.80;;;;;;;;;;5068938;28;20176;-75
2023/08/27 12:57:24;;;;;;;5.53;2.67;;;;;;;;;;5067022;28;20202;-75
2023/08/27 12:59:50;;;;;;;5.03;3.43;;;;;;;;;;5051965;28;20180;-75
2023/08/27 13:02:15;;;;;;;6.80;3.40;;;;;;;;;;5070816;28;20183;-76
2023/08/27 13:04:40;;;;;;;8.03;3.13;;;;;;;;;;5070724;28;20174;-74
2023/08/27 13:07:05;;;;;;;10.80;2.73;;;;;;;;;;5067436;28;20183;-75
2023/08/27 13:09:30;;;;;;;4.57;2.57;;;;;;;;;;5051739;28;20234;-74
2023/08/27 13:11:56;;;;;;;3.50;2.73;;;;;;;;;;5049155;28;20175;-74
2023/08/27 13:14:21;;;;;;;3.63;2.97;;;;;;;;;;5067083;28;20178;-74
2023/08/27 13:16:47;;;;;;;3.10;2.80;;;;;;;;;;5052575;28;20176;-73
2023/08/27 13:19:12;;;;;;;2.93;2.60;;;;;;;;;;5053145;28;20183;-74
2023/08/27 13:21:40;;;;;;;3.33;3.03;;;;;;;;;;5070776;28;20215;-73
2023/08/27 13:24:05;;;;;;;3.10;2.80;;;;;;;;;;5053529;28;20169;-74
2023/08/27 13:26:30;;;;;;;3.07;2.50;;;;;;;;;;5050801;28;20183;-74
2023/08/27 13:28:56;;;;;;;3.90;3.10;;;;;;;;;;5052915;28;20185;-74
2023/08/27 13:31:21;;;;;;;2.80;2.40;;;;;;;;;;5070233;28;20204;-74
2023/08/27 13:33:46;;;;;;;2.73;2.53;;;;;;;;;;5049655;28;20264;-72
2023/08/27 13:36:11;;;;;;;6.33;3.00;;;;;;;;;;5050830;28;20180;-73
2023/08/27 13:38:36;;;;;;;3.53;2.50;;;;;;;;;;5067687;28;20267;-74
2023/08/27 13:41:02;;;;;;;4.17;2.97;;;;;;;;;;5067231;28;20224;-74
2023/08/27 13:43:27;;;;;;;3.47;3.00;;;;;;;;;;5067504;28;20201;-74
2023/08/27 13:45:52;;;;;;;3.20;2.90;;;;;;;;;;5067942;28;20181;-74
2023/08/27 13:48:18;;;;;;;2.63;2.43;;;;;;;;;;5068633;28;20186;-74
2023/08/27 13:50:43;;;;;;;2.50;2.30;;;;;;;;;;5053218;28;20513;-74
2023/08/27 13:53:09;;;;;;;3.43;2.70;;;;;;;;;;5067924;28;20182;-74
2023/08/27 13:55:34;;;;;;;2.70;2.50;;;;;;;;;;5067143;28;20214;-74
2023/08/27 13:57:59;;;;;;;2.90;2.30;;;;;;;;;;5065384;28;20171;-74
2023/08/27 14:00:25;;;;;;;2.57;2.37;;;;;;;;;;5062830;28;20208;-74
2023/08/27 14:02:50;;;;;;;2.40;2.20;;;;;;;;;;5052864;28;20183;-74
2023/08/27 14:05:15;;;;;;;2.87;2.60;;;;;;;;;;5050370;28;20186;-74
2023/08/27 14:07:40;;;;;;;2.37;2.17;;;;;;;;;;5050825;28;20207;-74
2023/08/27 14:10:06;;;;;;;5.40;2.10;;;;;;;;;;5050949;28;20230;-74
2023/08/27 14:12:31;;;;;;;2.67;2.30;;;;;;;;;;5061795;28;20180;-74
2023/08/27 14:14:56;;;;;;;2.20;2.00;;;;;;;;;;5053155;28;20178;-74
2023/08/27 14:17:22;;;;;;;2.23;2.03;;;;;;;;;;5068683;28;20266;-74
2023/08/27 14:19:48;;;;;;;4.60;1.80;;;;;;;;;;5051682;28;20386;-74
2023/08/27 14:22:13;;;;;;;2.90;2.40;;;;;;;;;;5054045;28;20334;-74
2023/08/27 14:24:39;;;;;;;2.00;1.90;;;;;;;;;;5073759;28;20186;-74
2023/08/27 14:27:04;;;;;;;2.67;2.17;;;;;;;;;;5073499;28;20178;-74
2023/08/27 14:29:29;;;;;;;2.43;2.23;;;;;;;;;;5072656;28;20195;-75
2023/08/27 14:31:55;;;;;;;2.37;2.10;;;;;;;;;;5073609;28;20208;-74
2023/08/27 14:34:20;;;;;;;2.23;2.03;;;;;;;;;;5072606;28;20253;-75
2023/08/27 14:36:45;;;;;;;2.53;2.10;;;;;;;;;;5073586;28;20260;-75